Time;durP1;ratioP1;P1;durP2;ratioP2;P2;SDS_P1;SDS_P2;PMS_P1;PMS_P2;Temp;Humidity;BMP_temperature;BMP_pressure;BME280_temperature;BME280_humidity;BME280_pressure;Samples;Min_cycle;Max_cycle;Signal;HPM_P1;HPM_P2
2022/08/22 00:02:18;;;;;;;3.00;0.82;;;;;;;21.90;43.76;100012.56;10395803;28;20092;-72
2022/08/22 00:07:57;;;;;;;1.73;1.10;;;;;;;21.85;43.17;100006.94;10393844;28;20063;-72
2022/08/22 00:13:07;;;;;;;1.55;0.60;;;;;;;21.69;43.71;100013.53;10393487;28;20108;-73
2022/08/22 00:18:26;;;;;;;2.35;1.20;;;;;;;21.56;44.02;100006.22;10389262;28;20515;-74
2022/08/22 00:23:44;;;;;;;3.22;1.05;;;;;;;21.57;44.02;100004.31;10380391;28;20049;-73
2022/08/22 00:28:52;;;;;;;2.67;0.90;;;;;;;21.58;44.23;100014.13;10394097;28;20055;-72
2022/08/22 00:34:23;;;;;;;2.17;0.60;;;;;;;21.55;44.46;99991.00;10375797;28;20148;-70
2022/08/22 00:39:45;;;;;;;1.60;0.90;;;;;;;21.58;44.52;100008.72;10390180;28;20040;-72
2022/08/22 00:45:05;;;;;;;2.95;1.65;;;;;;;21.59;45.08;100010.38;10393228;28;20045;-73
2022/08/22 00:50:28;;;;;;;2.10;0.80;;;;;;;21.58;45.16;100003.28;10389912;28;20048;-74
2022/08/22 00:55:42;;;;;;;3.60;1.00;;;;;;;21.61;45.57;100000.19;10390344;28;20439;-72
2022/08/22 01:00:51;;;;;;;3.55;0.95;;;;;;;21.59;44.53;99999.53;10391123;28;20040;-73
2022/08/22 01:06:26;;;;;;;2.83;0.80;;;;;;;21.36;44.94;99998.78;10378476;28;20042;-71
2022/08/22 01:11:48;;;;;;;3.10;1.00;;;;;;;21.42;45.03;100002.53;10394852;28;20162;-72
2022/08/22 01:17:20;;;;;;;1.93;0.80;;;;;;;21.34;45.62;100000.03;10395509;28;20171;-72
2022/08/22 01:22:47;;;;;;;4.28;0.93;;;;;;;21.34;45.39;99992.72;10391211;28;20436;-71
2022/08/22 01:28:08;;;;;;;0.90;0.57;;;;;;;21.37;45.37;99994.22;10387936;28;20107;-71
2022/08/22 01:33:49;;;;;;;3.30;0.70;;;;;;;21.39;45.40;99994.00;10400169;28;20049;-72
2022/08/22 01:38:59;;;;;;;3.50;0.90;;;;;;;21.40;45.16;99985.69;10393108;28;20041;-70
2022/08/22 01:44:09;;;;;;;2.50;0.77;;;;;;;21.40;45.17;99987.56;10399006;28;20076;-72
2022/08/22 01:49:21;;;;;;;3.00;0.90;;;;;;;21.43;45.75;99987.16;10403357;28;20185;-72
2022/08/22 01:54:32;;;;;;;4.33;1.03;;;;;;;21.41;45.27;99983.81;10410678;28;20111;-73
2022/08/22 01:59:44;;;;;;;2.28;0.93;;;;;;;21.36;45.31;99976.28;10388674;28;20589;-73
2022/08/22 02:04:58;;;;;;;2.83;1.08;;;;;;;21.33;45.70;99987.50;10414141;28;20062;-71
2022/08/22 02:10:40;;;;;;;3.38;1.08;;;;;;;21.26;45.56;99978.53;10419025;28;20136;-71
2022/08/22 02:15:53;;;;;;;2.58;0.88;;;;;;;21.24;45.36;99980.59;10443907;28;20040;-72
2022/08/22 02:21:33;;;;;;;3.60;1.00;;;;;;;21.19;45.66;99981.19;10448092;28;20053;-74
2022/08/22 02:26:50;;;;;;;4.07;0.90;;;;;;;21.16;45.59;99977.00;10308611;28;20053;-73
2022/08/22 02:31:59;;;;;;;1.60;0.80;;;;;;;21.11;45.82;99971.38;10458846;28;20041;-72
2022/08/22 02:37:04;;;;;;;1.20;0.70;;;;;;;21.11;46.27;99973.25;10450320;28;20036;-73
2022/08/22 02:42:47;;;;;;;1.38;0.70;;;;;;;21.10;46.93;99974.28;10443785;28;20041;-72
2022/08/22 02:47:59;;;;;;;2.08;0.70;;;;;;;21.04;46.07;99975.09;10398496;28;20061;-72
2022/08/22 02:53:16;;;;;;;2.20;0.68;;;;;;;20.93;46.40;99984.59;10452309;28;20064;-74
2022/08/22 02:58:41;;;;;;;2.15;0.85;;;;;;;20.95;46.28;99985.22;10426209;28;20048;-73
2022/08/22 03:03:46;;;;;;;1.48;0.70;;;;;;;20.77;46.09;99972.19;10428794;28;20053;-73
2022/08/22 03:09:15;;;;;;;3.03;0.77;;;;;;;20.82;46.08;99973.28;10419683;28;20384;-73
2022/08/22 03:14:28;;;;;;;3.47;0.73;;;;;;;20.77;47.20;99967.63;10399447;28;20038;-72
2022/08/22 03:19:46;;;;;;;2.47;0.67;;;;;;;20.76;46.95;99963.25;10399151;28;20049;-72
2022/08/22 03:25:22;;;;;;;3.45;0.98;;;;;;;20.79;46.52;99975.53;10400379;28;20136;-72
2022/08/22 03:30:43;;;;;;;3.10;1.30;;;;;;;20.67;46.76;99961.72;10377865;28;20037;-72
2022/08/22 03:35:44;;;;;;;3.63;1.35;;;;;;;20.77;47.11;99972.19;10396365;28;20701;-74
2022/08/22 03:41:00;;;;;;;3.25;0.93;;;;;;;20.73;47.29;99968.22;10398775;28;20784;-75
2022/08/22 03:46:41;;;;;;;1.67;0.70;;;;;;;20.67;47.13;99967.13;10397542;28;20055;-73
2022/08/22 03:51:53;;;;;;;2.90;0.95;;;;;;;20.65;47.16;99974.56;10385692;28;20649;-73
2022/08/22 03:57:19;;;;;;;2.03;0.85;;;;;;;20.65;47.27;99980.84;10399003;28;20680;-72
2022/08/22 04:02:30;;;;;;;2.28;0.90;;;;;;;20.65;47.32;99985.38;10398122;28;20069;-72
2022/08/22 04:08:03;;;;;;;2.03;0.60;;;;;;;20.64;47.07;99983.72;10394729;28;20037;-72
2022/08/22 04:13:13;;;;;;;3.15;0.98;;;;;;;20.65;47.21;99990.81;10401780;28;20049;-72
2022/08/22 04:18:39;;;;;;;2.80;0.85;;;;;;;20.64;48.11;99994.53;10394460;28;20092;-72
2022/08/22 04:23:46;;;;;;;1.73;0.82;;;;;;;20.59;47.56;100002.41;10394032;28;20223;-72
2022/08/22 04:28:55;;;;;;;2.20;1.45;;;;;;;20.55;48.25;100003.81;10395594;28;20064;-72
2022/08/22 04:34:09;;;;;;;3.75;0.90;;;;;;;20.46;48.29;99986.88;10393214;28;20034;-73
2022/08/22 04:39:20;;;;;;;2.50;1.10;;;;;;;20.53;48.48;99992.38;10398694;28;20100;-72
2022/08/22 04:44:27;;;;;;;1.98;0.80;;;;;;;20.49;48.48;100003.56;10353306;28;1249548;-73
2022/08/22 04:49:37;;;;;;;2.83;0.80;;;;;;;20.38;48.15;100012.19;10403686;28;20144;-73
2022/08/22 04:55:07;;;;;;;3.70;1.23;;;;;;;20.30;48.54;100012.34;10395323;28;20049;-73
2022/08/22 05:00:10;;;;;;;2.85;1.08;;;;;;;20.23;48.77;100012.25;10366350;28;20317;-72
2022/08/22 05:05:14;;;;;;;;;;;;;;;20.18;48.87;100022.00;10378149;28;20155;-74
2022/08/22 05:10:17;;;;;;;3.35;1.20;;;;;;;20.11;48.95;100033.53;10383687;28;19935;-74
2022/08/22 05:15:26;;;;;;;3.00;1.08;;;;;;;20.10;49.17;100031.88;10393566;28;20143;-76
2022/08/22 05:20:29;;;;;;;2.53;1.30;;;;;;;20.09;49.08;100022.09;10407880;28;20076;-73
2022/08/22 05:25:34;;;;;;;3.70;1.70;;;;;;;20.11;49.92;100027.31;10384030;28;20052;-75
2022/08/22 05:30:38;;;;;;;3.97;1.05;;;;;;;20.12;49.68;100023.59;10407231;28;20048;-71
2022/08/22 05:35:51;;;;;;;4.63;1.20;;;;;;;20.17;49.80;100025.72;10410875;28;20048;-73
2022/08/22 05:41:04;;;;;;;5.53;1.63;;;;;;;20.15;49.77;100028.59;10409418;28;20104;-74
2022/08/22 05:46:15;;;;;;;2.95;1.00;;;;;;;20.09;49.73;100013.16;10407934;28;20126;-74
2022/08/22 05:51:23;;;;;;;3.40;1.40;;;;;;;20.16;49.75;100018.63;10410348;28;20064;-74
2022/08/22 05:56:49;;;;;;;4.00;1.38;;;;;;;20.20;49.67;100028.03;10411501;28;20234;-74
2022/08/22 06:02:03;;;;;;;8.05;1.63;;;;;;;20.32;50.62;100034.59;10442945;28;20040;-77
2022/08/22 06:07:13;;;;;;;7.15;1.75;;;;;;;20.45;49.52;100026.63;10434294;28;20045;-71
2022/08/22 06:12:24;;;;;;;6.13;1.10;;;;;;;20.69;49.53;100029.13;10421599;28;20050;-75
2022/08/22 06:17:36;;;;;;;3.28;0.90;;;;;;;20.86;48.71;100030.53;10406373;28;20067;-74
2022/08/22 06:22:47;;;;;;;2.65;1.20;;;;;;;21.03;49.48;100036.47;10405061;28;20176;-74
2022/08/22 06:27:50;;;;;;;2.97;1.30;;;;;;;21.20;48.46;100026.19;10384397;28;20112;-72
2022/08/22 06:32:56;;;;;;;4.03;1.40;;;;;;;21.50;47.99;100045.75;10393828;28;20646;-73
2022/08/22 06:38:01;;;;;;;4.22;1.35;;;;;;;21.80;46.33;100048.19;10404139;28;20392;-73
2022/08/22 06:43:04;;;;;;;2.73;1.33;;;;;;;21.89;46.50;100051.56;10397027;28;20114;-73
2022/08/22 06:48:05;;;;;;;4.00;1.40;;;;;;;22.36;46.47;100052.53;10398547;28;20136;-73
2022/08/22 06:53:17;;;;;;;2.65;1.42;;;;;;;22.52;46.59;100048.59;10393217;28;20691;-74
2022/08/22 06:58:28;;;;;;;4.75;1.48;;;;;;;22.59;45.96;100041.31;10396245;28;20108;-74
2022/08/22 07:03:39;;;;;;;2.30;1.38;;;;;;;22.60;45.95;100042.97;10396042;28;20215;-75
2022/08/22 07:08:41;;;;;;;4.25;1.73;;;;;;;22.67;45.93;100052.97;10378695;28;20061;-75
2022/08/22 07:13:52;;;;;;;3.50;1.65;;;;;;;22.69;45.53;100053.63;10403653;28;20064;-75
2022/08/22 07:18:53;;;;;;;7.72;1.98;;;;;;;22.78;46.27;100053.19;10383537;28;20199;-73
2022/08/22 07:23:59;;;;;;;3.20;1.58;;;;;;;23.04;46.48;100064.25;10394391;28;20090;-73
2022/08/22 07:29:04;;;;;;;3.25;1.77;;;;;;;23.40;44.70;100058.38;10398220;28;20061;-74
2022/08/22 07:34:24;;;;;;;3.88;1.83;;;;;;;23.69;44.50;100060.81;10382579;28;20048;-74
2022/08/22 07:39:36;;;;;;;5.13;2.22;;;;;;;23.91;43.94;100070.34;10402051;28;20151;-74
2022/08/22 07:44:53;;;;;;;5.45;2.78;;;;;;;23.96;43.69;100072.44;10401863;28;20045;-75
2022/08/22 07:50:03;;;;;;;2.92;1.70;;;;;;;23.84;44.45;100066.81;10404548;28;20135;-74
2022/08/22 07:55:07;;;;;;;3.28;2.45;;;;;;;24.03;45.26;100080.56;10405227;28;20049;-74
2022/08/22 08:00:17;;;;;;;3.15;1.98;;;;;;;24.24;44.81;100082.97;10394098;28;20159;-74
2022/08/22 08:05:23;;;;;;;3.97;2.38;;;;;;;24.50;43.89;100078.41;10402910;28;20053;-76
2022/08/22 08:10:30;;;;;;;3.28;2.35;;;;;;;24.56;43.52;100063.09;10400754;28;20077;-74
2022/08/22 08:15:34;;;;;;;3.72;2.60;;;;;;;24.47;44.37;100076.13;10386051;28;20136;-74
2022/08/22 08:20:36;;;;;;;5.28;2.58;;;;;;;24.42;44.53;100060.47;10398449;28;20127;-74
2022/08/22 08:26:01;;;;;;;3.50;2.80;;;;;;;24.48;44.37;100075.91;10399552;28;20152;-76
2022/08/22 08:31:06;;;;;;;4.03;2.50;;;;;;;24.99;43.73;100071.34;10376994;28;20195;-74
2022/08/22 08:36:35;;;;;;;3.83;3.03;;;;;;;25.18;42.92;100079.59;10390552;28;20158;-73
2022/08/22 08:42:08;;;;;;;3.25;2.92;;;;;;;25.39;43.64;100072.91;10386996;28;20052;-76
2022/08/22 08:47:25;;;;;;;3.10;2.13;;;;;;;26.05;41.56;100065.03;10394554;28;20610;-73
2022/08/22 08:52:53;;;;;;;3.33;2.60;;;;;;;25.97;41.91;100070.75;10391883;28;20051;-72
2022/08/22 08:58:01;;;;;;;5.88;3.15;;;;;;;26.19;41.98;100055.59;10394062;28;20512;-71
2022/08/22 09:03:12;;;;;;;6.53;3.13;;;;;;;26.79;40.42;100062.88;10389890;28;20060;-73
2022/08/22 09:08:57;;;;;;;4.07;3.22;;;;;;;27.25;40.37;100048.66;10394876;28;20160;-72
2022/08/22 09:14:26;;;;;;;3.58;2.85;;;;;;;27.55;38.84;100061.34;10397741;28;20127;-73
2022/08/22 09:19:46;;;;;;;3.40;3.10;;;;;;;27.93;38.26;100057.22;10393022;28;20092;-74
2022/08/22 09:25:14;;;;;;;4.97;2.78;;;;;;;28.12;37.40;100056.00;10381188;28;20510;-70
2022/08/22 09:30:18;;;;;;;2.83;2.58;;;;;;;28.33;35.90;100053.63;10396949;28;22879;-75
2022/08/22 09:35:54;;;;;;;3.08;2.03;;;;;;;28.73;35.60;100048.06;10393201;28;20045;-73
2022/08/22 09:41:19;;;;;;;3.63;2.35;;;;;;;29.03;34.25;100043.31;10388397;28;20051;-76
2022/08/22 09:46:31;;;;;;;4.50;2.22;;;;;;;29.51;33.36;100030.03;10389628;28;20145;-75
2022/08/22 09:51:44;;;;;;;3.85;2.83;;;;;;;29.85;32.71;100019.78;10372649;28;20565;-75
2022/08/22 09:57:03;;;;;;;4.50;2.60;;;;;;;30.18;31.84;100015.19;10387723;28;20668;-75
2022/08/22 10:02:15;;;;;;;3.03;2.28;;;;;;;30.43;31.46;100016.50;10370571;28;20099;-75
2022/08/22 10:07:29;;;;;;;5.10;2.53;;;;;;;30.49;31.77;100001.72;10391171;28;20053;-74
2022/08/22 10:12:58;;;;;;;4.35;2.70;;;;;;;31.16;30.84;99994.81;10400201;28;20048;-75
2022/08/22 10:18:09;;;;;;;4.38;2.33;;;;;;;31.50;29.49;99985.34;10397611;28;20659;-74
2022/08/22 10:23:20;;;;;;;5.00;2.38;;;;;;;32.63;28.71;99979.22;10392974;28;20688;-72
2022/08/22 10:28:56;;;;;;;4.20;1.70;;;;;;;36.60;22.04;99975.41;10395949;28;21152;-74
2022/08/22 10:34:10;;;;;;;1.77;1.42;;;;;;;39.13;19.82;99976.09;10391843;28;20045;-76
2022/08/22 10:39:20;;;;;;;2.45;1.33;;;;;;;37.48;19.60;99969.00;10387889;28;20049;-76
2022/08/22 10:44:36;;;;;;;2.15;1.10;;;;;;;35.77;20.87;99966.72;10384492;28;20122;-75
2022/08/22 10:49:56;;;;;;;2.50;1.25;;;;;;;35.67;20.36;99953.03;10389137;28;20415;-75
2022/08/22 10:55:07;;;;;;;2.95;1.20;;;;;;;39.49;17.59;99963.91;10391092;28;20056;-76
2022/08/22 11:00:48;;;;;;;1.95;1.20;;;;;;;43.40;13.75;99962.97;10387520;28;20056;-76
2022/08/22 11:05:56;;;;;;;3.38;1.10;;;;;;;38.80;17.03;99948.63;10389235;28;20075;-75
2022/08/22 11:11:06;;;;;;;2.08;1.00;;;;;;;36.95;18.87;99950.94;10389327;28;20117;-75
2022/08/22 11:16:18;;;;;;;3.13;1.20;;;;;;;38.89;16.43;99943.91;10384960;28;20045;-76
2022/08/22 11:21:44;;;;;;;2.42;1.00;;;;;;;38.53;16.50;99947.66;10389230;28;20037;-77
2022/08/22 11:26:56;;;;;;;2.45;1.13;;;;;;;36.29;20.47;99933.56;10391363;28;20045;-75
2022/08/22 11:32:21;;;;;;;2.92;0.98;;;;;;;34.09;22.41;99940.59;10375317;28;20045;-74
2022/08/22 11:37:55;;;;;;;2.97;1.27;;;;;;;36.29;19.13;99950.19;10389366;28;20053;-76
2022/08/22 11:43:27;;;;;;;2.25;1.30;;;;;;;40.56;14.92;99941.28;10390851;28;20056;-75
2022/08/22 11:49:05;;;;;;;3.90;0.98;;;;;;;43.95;13.74;99921.41;10391475;28;21363;-76
2022/08/22 11:54:23;;;;;;;1.92;0.80;;;;;;;45.08;11.71;99920.31;10373129;28;20109;-74
2022/08/22 11:59:55;;;;;;;2.63;1.17;;;;;;;43.31;12.90;99925.06;10389247;28;20056;-74
2022/08/22 12:05:05;;;;;;;2.78;0.70;;;;;;;40.05;15.39;99910.38;10369316;28;20498;-75
2022/08/22 12:10:13;;;;;;;2.53;0.93;;;;;;;38.88;16.44;99913.63;10389529;28;20553;-73
2022/08/22 12:15:21;;;;;;;;;;;;;;;37.72;17.62;99906.06;10389928;28;20135;-76
2022/08/22 12:20:40;;;;;;;2.65;1.13;;;;;;;37.38;17.56;99897.06;10388165;28;20458;-77
2022/08/22 12:26:28;;;;;;;3.40;1.00;;;;;;;36.73;17.31;99898.13;10385518;28;20111;-77
2022/08/22 12:31:45;;;;;;;2.65;0.80;;;;;;;36.61;19.12;99885.56;10368658;28;20059;-77
2022/08/22 12:37:02;;;;;;;1.73;0.93;;;;;;;36.46;19.19;99869.25;10391501;28;20048;-76
2022/08/22 12:42:39;;;;;;;2.65;1.15;;;;;;;36.25;19.19;99877.91;10382243;28;20050;-76
2022/08/22 12:48:13;;;;;;;2.65;0.85;;;;;;;36.12;18.90;99872.34;10383548;28;20045;-77
2022/08/22 12:53:23;;;;;;;1.52;0.90;;;;;;;36.09;18.13;99866.28;10369179;28;20054;-75
2022/08/22 12:59:01;;;;;;;2.45;0.90;;;;;;;35.43;18.85;99859.03;10393123;28;20075;-76
2022/08/22 13:04:11;;;;;;;2.15;1.10;;;;;;;35.46;19.61;99853.72;10386960;28;20053;-74
2022/08/22 13:09:35;;;;;;;3.47;1.05;;;;;;;35.30;19.05;99849.53;10389492;28;20468;-77
2022/08/22 13:14:37;;;;;;;1.33;0.93;;;;;;;35.00;18.79;99843.28;10388061;28;20402;-75
2022/08/22 13:19:54;;;;;;;2.60;0.98;;;;;;;34.50;19.16;99841.63;10385005;28;20150;-74
2022/08/22 13:25:04;;;;;;;1.65;0.90;;;;;;;34.13;20.71;99836.75;10385113;28;20053;-76
2022/08/22 13:30:34;;;;;;;2.85;1.08;;;;;;;34.29;19.52;99845.72;10397166;28;20740;-75
2022/08/22 13:35:59;;;;;;;2.63;1.38;;;;;;;34.03;20.06;99832.13;10392709;28;20123;-72
2022/08/22 13:41:02;;;;;;;3.00;1.02;;;;;;;34.03;20.12;99831.31;10389133;28;20053;-74
2022/08/22 13:46:07;;;;;;;3.25;1.08;;;;;;;34.01;19.67;99828.84;10392559;28;20060;-74
2022/08/22 13:51:21;;;;;;;4.30;1.27;;;;;;;33.47;19.66;99827.88;10388187;28;20041;-74
2022/08/22 13:56:29;;;;;;;2.75;0.70;;;;;;;33.15;20.54;99828.31;10396506;28;20045;-74
2022/08/22 14:01:30;;;;;;;2.70;1.00;;;;;;;33.20;19.99;99820.88;10393205;28;20045;-77
2022/08/22 14:06:44;;;;;;;1.65;1.13;;;;;;;33.02;19.85;99816.81;10392860;28;20071;-76
2022/08/22 14:11:52;;;;;;;1.25;0.90;;;;;;;32.94;20.91;99807.19;10396882;28;20794;-75
2022/08/22 14:16:57;;;;;;;2.15;1.25;;;;;;;32.92;20.63;99814.09;10387036;28;21111;-75
2022/08/22 14:22:14;;;;;;;2.47;1.15;;;;;;;32.77;21.15;99807.56;10392350;28;20049;-75
2022/08/22 14:27:29;;;;;;;3.70;0.77;;;;;;;32.55;20.80;99809.84;10399775;28;20130;-77
2022/08/22 14:32:35;;;;;;;2.00;0.93;;;;;;;32.29;20.98;99800.81;10395329;28;20041;-74
2022/08/22 14:37:44;;;;;;;;;;;;;;;32.21;21.00;99799.44;10395686;28;20059;-74
2022/08/22 14:42:55;;;;;;;1.08;0.75;;;;;;;31.95;21.37;99785.72;10374646;28;19921;-75
2022/08/22 14:48:06;;;;;;;1.95;0.75;;;;;;;31.71;21.29;99790.97;10398190;28;20063;-73
2022/08/22 14:53:30;;;;;;;3.30;1.20;;;;;;;31.55;21.49;99792.88;10392246;28;20044;-73
2022/08/22 14:58:44;;;;;;;2.42;0.93;;;;;;;31.37;21.71;99792.25;10395839;28;20144;-74
2022/08/22 15:04:04;;;;;;;1.70;0.90;;;;;;;31.25;21.49;99772.44;10391885;28;20048;-76
2022/08/22 15:09:55;;;;;;;3.63;1.05;;;;;;;31.08;21.65;99767.22;10385866;28;20560;-71
2022/08/22 15:15:04;;;;;;;2.17;0.90;;;;;;;30.89;21.43;99777.84;10372557;28;20052;-73
2022/08/22 15:20:10;;;;;;;1.98;1.20;;;;;;;30.67;22.08;99773.38;10380033;28;20061;-73
2022/08/22 15:25:18;;;;;;;2.33;1.02;;;;;;;30.80;21.88;99776.72;10397769;28;21211;-74
2022/08/22 15:30:42;;;;;;;1.80;1.13;;;;;;;30.82;22.30;99769.03;10390003;28;20057;-75
2022/08/22 15:35:45;;;;;;;2.28;1.00;;;;;;;30.72;21.84;99764.34;10393940;28;20059;-74
2022/08/22 15:40:48;;;;;;;2.22;0.70;;;;;;;30.55;22.19;99767.28;10400641;28;20045;-74
2022/08/22 15:46:07;;;;;;;2.47;1.02;;;;;;;30.38;22.14;99759.22;10396468;28;20742;-75
2022/08/22 15:51:31;;;;;;;1.40;0.80;;;;;;;30.18;23.06;99756.38;10397368;28;20371;-74
2022/08/22 15:56:37;;;;;;;3.50;1.00;;;;;;;29.99;22.55;99750.50;10382268;28;20473;-72
2022/08/22 16:01:50;;;;;;;2.15;0.90;;;;;;;29.82;22.75;99762.44;10394698;28;21123;-74
2022/08/22 16:06:56;;;;;;;1.83;1.20;;;;;;;29.75;23.41;99764.53;10390127;28;20048;-74
2022/08/22 16:12:02;;;;;;;3.92;1.23;;;;;;;29.59;22.91;99752.63;10385738;28;20063;-75
2022/08/22 16:17:27;;;;;;;1.77;1.05;;;;;;;29.58;23.01;99757.28;10391255;28;20066;-75
2022/08/22 16:22:58;;;;;;;1.65;0.93;;;;;;;29.59;23.52;99753.47;10377987;28;20109;-75
2022/08/22 16:28:00;;;;;;;1.55;0.80;;;;;;;29.55;22.97;99748.78;10369470;28;20914;-76
2022/08/22 16:33:03;;;;;;;3.13;1.05;;;;;;;29.47;23.50;99752.81;10363497;28;20108;-76
2022/08/22 16:38:04;;;;;;;5.90;3.25;;;;;;;29.41;24.36;99748.34;10392037;28;20419;-74
2022/08/22 16:43:14;;;;;;;2.30;1.13;;;;;;;29.33;23.04;99743.38;10390853;28;20053;-74
2022/08/22 16:48:33;;;;;;;3.88;1.25;;;;;;;29.18;23.29;99742.09;10365576;28;20052;-75
2022/08/22 16:53:37;;;;;;;3.03;1.27;;;;;;;29.06;23.79;99739.50;10385456;28;20040;-74
2022/08/22 16:58:51;;;;;;;2.83;1.30;;;;;;;28.88;23.83;99727.00;10378964;28;20044;-72
2022/08/22 17:04:38;;;;;;;1.98;1.02;;;;;;;28.81;24.72;99744.72;10389510;28;20045;-74
2022/08/22 17:09:57;;;;;;;2.38;1.20;;;;;;;28.70;23.83;99743.78;10396792;28;21466;-74
2022/08/22 17:15:17;;;;;;;4.68;0.82;;;;;;;28.57;24.72;99742.25;10401053;28;20392;-73
2022/08/22 17:20:42;;;;;;;3.53;1.15;;;;;;;28.53;24.41;99746.56;10398304;28;20940;-76
2022/08/22 17:26:11;;;;;;;3.38;1.45;;;;;;;28.47;24.49;99756.63;10397681;28;20041;-74
2022/08/22 17:31:22;;;;;;;1.45;0.90;;;;;;;28.39;24.71;99757.06;10413715;28;20515;-74
2022/08/22 17:36:51;;;;;;;2.67;1.20;;;;;;;28.32;25.38;99756.44;10407610;28;20563;-75
2022/08/22 17:41:59;;;;;;;3.13;1.10;;;;;;;28.25;24.83;99755.78;10408501;28;20159;-76
2022/08/22 17:47:18;;;;;;;3.78;1.15;;;;;;;28.21;24.91;99761.75;10398816;28;20044;-75
2022/08/22 17:52:45;;;;;;;3.60;1.17;;;;;;;28.11;24.88;99766.25;10398311;28;20088;-74
2022/08/22 17:58:05;;;;;;;2.33;1.20;;;;;;;28.02;25.21;99768.59;10401744;28;20081;-75
2022/08/22 18:03:23;;;;;;;1.98;0.98;;;;;;;27.93;25.77;99764.59;10383501;28;20052;-76
2022/08/22 18:08:32;;;;;;;1.83;1.00;;;;;;;27.69;25.39;99749.19;10403340;28;20052;-71
2022/08/22 18:14:10;;;;;;;2.00;1.52;;;;;;;27.59;26.03;99759.13;10404105;28;20060;-72
2022/08/22 18:19:36;;;;;;;2.80;1.40;;;;;;;27.56;26.73;99776.03;10406912;28;20332;-76
2022/08/22 18:24:54;;;;;;;4.78;1.65;;;;;;;27.44;27.66;99781.56;10403797;28;20600;-73
2022/08/22 18:30:10;;;;;;;3.72;1.95;;;;;;;27.30;27.82;99784.56;10392755;28;20156;-75
2022/08/22 18:35:21;;;;;;;3.13;1.70;;;;;;;27.15;28.64;99793.31;10366635;28;20188;-71
2022/08/22 18:40:24;;;;;;;3.42;2.33;;;;;;;27.05;29.20;99784.91;10389219;28;20076;-73
2022/08/22 18:45:44;;;;;;;3.63;2.33;;;;;;;26.91;29.47;99798.03;10371128;28;20057;-73
2022/08/22 18:50:47;;;;;;;4.85;2.35;;;;;;;26.76;29.51;99792.28;10370964;28;20152;-74
2022/08/22 18:55:59;;;;;;;3.30;2.22;;;;;;;26.70;29.80;99810.44;10369938;28;20179;-73
2022/08/22 19:01:29;;;;;;;4.23;2.50;;;;;;;26.61;30.15;99812.66;10357494;28;20325;-72
2022/08/22 19:07:04;;;;;;;3.33;2.10;;;;;;;26.50;30.62;99818.16;10380513;28;20060;-73
2022/08/22 19:12:30;;;;;;;2.75;1.85;;;;;;;26.40;30.51;99814.13;10388401;28;20116;-71
2022/08/22 19:18:00;;;;;;;3.70;1.92;;;;;;;26.29;30.35;99815.81;10388233;28;20067;-74
2022/08/22 19:23:36;;;;;;;3.85;2.20;;;;;;;26.23;30.28;99829.56;10394409;28;20085;-72
2022/08/22 19:28:37;;;;;;;4.80;1.90;;;;;;;26.10;30.76;99820.53;10395652;28;20052;-73
2022/08/22 19:33:45;;;;;;;4.55;2.53;;;;;;;26.05;31.06;99828.59;10393746;28;20052;-73
2022/08/22 19:38:52;;;;;;;4.13;2.00;;;;;;;25.99;31.26;99834.19;10393479;28;20290;-74
2022/08/22 19:43:54;;;;;;;3.75;1.70;;;;;;;25.94;31.55;99829.38;10391082;28;20558;-74
2022/08/22 19:48:55;;;;;;;2.17;1.80;;;;;;;25.83;31.23;99824.75;10373819;28;20447;-75
2022/08/22 19:53:59;;;;;;;4.07;2.03;;;;;;;25.81;31.32;99832.34;10396407;28;20175;-74
2022/08/22 19:59:11;;;;;;;2.67;1.70;;;;;;;25.75;31.43;99834.94;10389476;28;20119;-76
2022/08/22 20:04:43;;;;;;;4.68;2.40;;;;;;;25.71;30.75;99841.09;10393213;28;20512;-74
2022/08/22 20:10:18;;;;;;;3.40;2.20;;;;;;;25.64;30.71;99835.75;10389847;28;20904;-72
2022/08/22 20:15:22;;;;;;;4.10;2.30;;;;;;;25.71;31.37;99844.63;10386098;28;20060;-75
2022/08/22 20:20:25;;;;;;;6.38;2.40;;;;;;;25.73;31.46;99841.66;10382682;28;21279;-75
2022/08/22 20:25:48;;;;;;;2.97;1.90;;;;;;;25.63;31.20;99842.25;10373815;28;20101;-73
2022/08/22 20:30:56;;;;;;;2.38;2.08;;;;;;;25.62;32.13;99842.50;10376748;28;20335;-74
2022/08/22 20:36:03;;;;;;;4.97;2.20;;;;;;;25.62;31.83;99845.22;10390316;28;20589;-75
2022/08/22 20:41:38;;;;;;;2.60;2.33;;;;;;;25.59;32.29;99849.22;10388295;28;20062;-74
2022/08/22 20:46:45;;;;;;;3.97;2.25;;;;;;;25.53;32.48;99858.34;10381752;28;20048;-73
2022/08/22 20:52:07;;;;;;;4.18;1.83;;;;;;;25.43;32.42;99847.97;10385954;28;20321;-73
2022/08/22 20:57:18;;;;;;;2.72;1.83;;;;;;;25.44;32.20;99860.53;10386615;28;20051;-74
2022/08/22 21:02:23;;;;;;;5.75;2.42;;;;;;;25.41;33.24;99864.56;10389490;28;20048;-72
2022/08/22 21:07:27;;;;;;;4.65;2.17;;;;;;;25.38;32.74;99853.31;10370820;28;20106;-73
2022/08/22 21:12:28;;;;;;;4.70;2.20;;;;;;;25.37;33.38;99860.66;10393331;28;20045;-72
2022/08/22 21:17:32;;;;;;;4.45;2.85;;;;;;;25.23;35.72;99872.75;10380752;28;20537;-74
2022/08/22 21:22:35;;;;;;;4.03;1.85;;;;;;;25.21;34.75;99870.25;10389236;28;20057;-74
2022/08/22 21:27:37;;;;;;;3.70;2.00;;;;;;;25.18;34.31;99878.06;10390544;28;20163;-72
2022/08/22 21:32:41;;;;;;;3.90;1.85;;;;;;;25.11;34.64;99885.47;10379666;28;20693;-74
2022/08/22 21:37:44;;;;;;;7.72;2.15;;;;;;;24.78;34.02;99903.00;10387591;28;20135;-72
2022/08/22 21:43:05;;;;;;;4.75;1.42;;;;;;;24.60;34.37;99898.38;10390457;28;20113;-71
2022/08/22 21:48:37;;;;;;;4.13;1.60;;;;;;;24.58;34.85;99895.88;10391085;28;20132;-71
2022/08/22 21:53:39;;;;;;;2.50;1.50;;;;;;;24.47;34.57;99896.59;10386046;28;20037;-72
2022/08/22 21:58:41;;;;;;;3.13;1.60;;;;;;;24.45;34.97;99896.81;10388365;28;20136;-75
2022/08/22 22:03:42;;;;;;;1.70;1.58;;;;;;;24.41;35.43;99897.47;10393115;28;20770;-74
2022/08/22 22:08:45;;;;;;;3.88;1.38;;;;;;;24.35;35.17;99902.75;10384230;28;20309;-73
2022/08/22 22:13:46;;;;;;;3.40;1.58;;;;;;;24.19;35.53;99897.88;10391199;28;20685;-74
2022/08/22 22:18:48;;;;;;;3.65;1.67;;;;;;;24.05;36.17;99910.75;10392022;28;20053;-74
2022/08/22 22:23:49;;;;;;;3.10;1.30;;;;;;;24.03;36.11;99926.44;10390590;28;20060;-71
2022/08/22 22:28:51;;;;;;;2.90;1.58;;;;;;;24.00;36.00;99922.28;10394378;28;20048;-70
2022/08/22 22:33:53;;;;;;;2.13;1.40;;;;;;;23.95;36.50;99924.81;10392609;28;20159;-72
2022/08/22 22:38:54;;;;;;;2.65;1.30;;;;;;;23.96;36.88;99933.81;10393445;28;20530;-71
2022/08/22 22:43:56;;;;;;;2.70;1.30;;;;;;;23.95;36.29;99929.44;10393877;28;20528;-72
2022/08/22 22:48:57;;;;;;;3.80;1.63;;;;;;;23.80;36.17;99943.28;10394674;28;20804;-72
2022/08/22 22:53:59;;;;;;;2.75;1.60;;;;;;;23.79;36.94;99947.06;10393058;28;20057;-72
2022/08/22 22:59:01;;;;;;;4.75;1.40;;;;;;;23.73;36.82;99943.31;10391809;28;20051;-72
2022/08/22 23:04:13;;;;;;;2.30;1.30;;;;;;;23.60;37.58;99957.81;10393372;28;20068;-74
2022/08/22 23:09:15;;;;;;;3.80;1.70;;;;;;;23.53;37.34;99951.59;10395282;28;20783;-72
2022/08/22 23:14:18;;;;;;;1.92;1.40;;;;;;;23.52;37.51;99957.22;10392108;28;20049;-74
2022/08/22 23:19:20;;;;;;;4.35;1.40;;;;;;;23.39;37.86;99963.53;10392406;28;20538;-73
2022/08/22 23:24:22;;;;;;;1.15;1.05;;;;;;;23.36;38.19;99981.13;10392226;28;20127;-70
2022/08/22 23:29:25;;;;;;;1.92;1.38;;;;;;;23.29;38.23;99975.69;10389125;28;20075;-72
2022/08/22 23:34:30;;;;;;;3.50;1.20;;;;;;;23.33;38.80;99986.13;10395570;28;20751;-74
2022/08/22 23:39:32;;;;;;;2.08;1.23;;;;;;;23.36;39.10;99991.13;10387978;28;20734;-71
2022/08/22 23:44:36;;;;;;;3.78;1.27;;;;;;;23.32;39.06;100000.78;10390722;28;20156;-73
2022/08/22 23:49:39;;;;;;;3.88;2.65;;;;;;;23.27;38.64;100004.94;10390831;28;20054;-73
2022/08/22 23:54:40;;;;;;;2.92;1.73;;;;;;;23.23;38.68;99998.28;10388050;28;20656;-72
2022/08/22 23:59:41;;;;;;;3.47;1.42;;;;;;;23.23;38.80;100003.69;10388058;28;20079;-71
